Terminal Aerodrome Forecast
Issued by NWS

Home | Current Version | Previous Version | Text Only | Print | Product List | Glossary On
Versions: 1 2 3 4 5 6 7 8 9 10 11 12 13 14 15 16 17 18 19 20
000
FTUS46 KSEW 011700
TAFOLM
TAF
KOLM 011737Z 0118/0218 19005KT P6SM SCT180
     FM020300 28003KT P6SM BKN080 OVC120
     FM020600 VRB03KT P6SM -RA BKN025 OVC040
     FM020900 00000KT P6SM -RA OVC020
     FM021400 VRB03KT P6SM BKN020 OVC040=

USA.gov is the U.S. government's official web portal to all federal, state and local government web resources and services.